Time;durP1;ratioP1;P1;durP2;ratioP2;P2;SDS_P1;SDS_P2;PMS_P1;PMS_P2;Temp;Humidity;BMP_temperature;BMP_pressure;BME280_temperature;BME280_humidity;BME280_pressure;Samples;Min_cycle;Max_cycle;Signal;HPM_P1;HPM_P2
2021/03/20 00:00:35;;;;;;;6.48;3.58;;;;;;;-1.11;76.92;100252.63;2015545;78;21088;-78
2021/03/20 00:03:37;;;;;;;6.57;3.74;;;;;;;-1.16;76.80;100259.16;2015966;80;20193;-78
2021/03/20 00:06:47;;;;;;;10.15;4.24;;;;;;;-1.19;76.87;100258.97;2016311;80;20228;-78
2021/03/20 00:09:53;;;;;;;7.87;3.99;;;;;;;-1.18;77.42;100253.09;2015877;80;20363;-78
2021/03/20 00:12:55;;;;;;;6.24;3.72;;;;;;;-1.18;77.75;100257.31;2016391;80;20634;-78
2021/03/20 00:15:56;;;;;;;6.77;4.28;;;;;;;-1.24;77.97;100258.72;2015420;77;20172;-79
2021/03/20 00:18:58;;;;;;;6.49;3.53;;;;;;;-1.27;77.89;100257.66;2017343;80;20212;-80
2021/03/20 00:22:00;;;;;;;7.16;3.47;;;;;;;-1.32;77.75;100259.06;2017847;80;20199;-80
2021/03/20 00:25:03;;;;;;;6.11;3.73;;;;;;;-1.36;77.75;100263.13;2021375;80;20221;-81
2021/03/20 00:28:09;;;;;;;7.31;3.82;;;;;;;-1.40;77.77;100260.34;2024159;80;20602;-82
2021/03/20 00:31:12;;;;;;;5.71;3.41;;;;;;;-1.45;77.80;100267.69;2027586;78;20912;-81
2021/03/20 00:34:14;;;;;;;5.68;3.27;;;;;;;-1.48;77.75;100259.00;2063472;70;20194;-66
2021/03/20 00:37:16;;;;;;;5.20;3.28;;;;;;;-1.53;77.81;100271.47;2017056;80;20694;-67
2021/03/20 00:40:27;;;;;;;5.09;3.56;;;;;;;-1.58;77.75;100262.69;2016941;80;20789;-67
2021/03/20 00:43:28;;;;;;;5.54;2.96;;;;;;;-1.58;77.87;100262.69;2016812;80;20240;-67
2021/03/20 00:46:30;;;;;;;5.06;2.70;;;;;;;-1.63;77.72;100266.63;2016437;77;20179;-66
2021/03/20 00:49:32;;;;;;;4.74;3.42;;;;;;;-1.68;77.82;100263.81;2016480;80;20201;-67
2021/03/20 00:52:34;;;;;;;6.43;2.73;;;;;;;-1.70;77.96;100260.31;2017170;80;20621;-67
2021/03/20 00:55:36;;;;;;;5.20;3.04;;;;;;;-1.74;77.90;100255.84;2016215;80;20581;-66
2021/03/20 00:58:41;;;;;;;4.78;2.77;;;;;;;-1.79;78.22;100259.81;2016972;80;20171;-66
2021/03/20 01:01:43;;;;;;;4.66;3.14;;;;;;;-1.87;78.41;100254.25;2014772;78;22612;-67
2021/03/20 01:04:45;;;;;;;6.74;3.11;;;;;;;-1.91;78.38;100262.50;2016464;80;20378;-67
2021/03/20 01:07:46;;;;;;;5.79;3.02;;;;;;;-1.97;78.10;100259.59;2017178;80;20231;-66
2021/03/20 01:10:49;;;;;;;5.47;3.46;;;;;;;-1.94;78.28;100259.78;2016775;80;21192;-66
2021/03/20 01:13:51;;;;;;;4.36;2.91;;;;;;;-1.93;78.63;100256.44;2016938;80;20757;-66
2021/03/20 01:16:52;;;;;;;4.70;3.02;;;;;;;-1.95;78.54;100259.69;2015712;77;22212;-66
2021/03/20 01:19:54;;;;;;;4.91;3.18;;;;;;;-1.97;78.70;100259.59;2016537;80;20189;-66
2021/03/20 01:22:55;;;;;;;3.86;2.69;;;;;;;-1.98;78.91;100255.25;2016870;80;20164;-67
2021/03/20 01:25:57;;;;;;;4.27;2.72;;;;;;;-2.00;78.81;100261.06;2016773;80;20164;-67
2021/03/20 01:28:59;;;;;;;5.96;2.57;;;;;;;-2.06;78.64;100264.13;2016080;80;20381;-66
2021/03/20 01:32:00;;;;;;;3.92;2.87;;;;;;;-2.09;78.77;100273.25;2016263;78;22997;-67
2021/03/20 01:35:03;;;;;;;4.49;3.02;;;;;;;-2.13;78.72;100262.91;2016006;80;20199;-67
2021/03/20 01:38:05;;;;;;;4.83;2.72;;;;;;;-2.16;78.77;100261.81;2017028;80;20932;-66
2021/03/20 01:41:12;;;;;;;2.77;2.46;;;;;;;-2.18;78.65;100266.81;2016474;80;20164;-66
2021/03/20 01:44:17;;;;;;;6.97;3.07;;;;;;;-2.20;78.85;100268.38;2016522;80;20191;-66
2021/03/20 01:47:18;;;;;;;3.60;2.96;;;;;;;-2.23;78.92;100267.31;2016149;78;24388;-66
2021/03/20 01:50:31;;;;;;;4.02;2.73;;;;;;;-2.25;79.04;100277.41;2016857;80;21008;-67
2021/03/20 01:53:38;;;;;;;5.04;2.37;;;;;;;-2.27;79.06;100275.56;2016205;80;20244;-66
2021/03/20 01:56:42;;;;;;;4.69;2.96;;;;;;;-2.31;79.12;100278.72;2016230;80;20221;-66
2021/03/20 01:59:46;;;;;;;2.91;2.60;;;;;;;-2.34;79.30;100266.66;2017293;80;20167;-66
2021/03/20 02:02:48;;;;;;;3.86;2.84;;;;;;;-2.36;79.42;100272.44;2015303;78;21769;-66
2021/03/20 02:05:50;;;;;;;5.89;2.93;;;;;;;-2.36;79.61;100278.41;2016330;80;20741;-66
2021/03/20 02:08:54;;;;;;;5.04;2.98;;;;;;;-2.37;79.98;100283.41;2016721;80;20767;-66
2021/03/20 02:12:02;;;;;;;4.84;2.67;;;;;;;-2.38;79.93;100284.19;2016239;80;20172;-66
2021/03/20 02:15:25;;;;;;;4.73;2.82;;;;;;;-2.36;80.07;100283.50;2015711;80;20676;-66
2021/03/20 02:18:46;;;;;;;6.16;2.89;;;;;;;-2.34;80.24;100281.94;2019165;80;20314;-67
2021/03/20 02:22:02;;;;;;;4.74;2.70;;;;;;;-2.30;80.46;100283.91;2016769;80;20736;-66
2021/03/20 02:25:55;;;;;;;4.93;2.72;;;;;;;-2.27;80.64;100273.03;2016457;80;21173;-66
2021/03/20 02:29:16;;;;;;;4.76;2.39;;;;;;;-2.26;80.60;100277.31;2016891;80;20233;-66
2021/03/20 02:32:39;;;;;;;3.98;2.19;;;;;;;-2.21;80.74;100278.47;2015130;77;22266;-66
2021/03/20 02:35:55;;;;;;;3.61;2.52;;;;;;;-2.24;80.41;100278.28;2016059;80;20275;-66
2021/03/20 02:39:06;;;;;;;4.34;2.31;;;;;;;-2.21;80.64;100271.72;2016443;80;20784;-66
2021/03/20 02:42:18;;;;;;;3.39;2.62;;;;;;;-2.22;80.68;100274.16;2016559;80;20197;-66
2021/03/20 02:45:50;;;;;;;4.06;2.50;;;;;;;-2.23;80.60;100282.59;2015400;78;21519;-67
2021/03/20 02:49:01;;;;;;;3.13;2.37;;;;;;;-2.28;80.61;100281.44;2016343;80;20399;-66
2021/03/20 02:52:40;;;;;;;3.68;2.37;;;;;;;-2.31;80.53;100286.34;2016315;80;20905;-66
2021/03/20 02:55:47;;;;;;;3.85;2.50;;;;;;;-2.33;80.36;100276.09;2011782;80;20309;-66
2021/03/20 02:58:57;;;;;;;3.03;2.19;;;;;;;-2.28;80.61;100279.78;2016652;80;20191;-66
2021/03/20 03:02:03;;;;;;;4.21;2.03;;;;;;;-2.30;80.67;100271.19;2016285;77;20168;-66
2021/03/20 03:05:11;;;;;;;3.64;2.63;;;;;;;-2.30;80.48;100272.84;2013749;80;20286;-66
2021/03/20 03:08:19;;;;;;;2.53;2.33;;;;;;;-2.30;80.67;100263.56;2018155;80;20193;-66
2021/03/20 03:11:38;;;;;;;4.31;2.46;;;;;;;-2.31;80.72;100274.50;2018167;80;20177;-66
2021/03/20 03:14:43;;;;;;;;;;;;;;;-2.27;80.85;100268.81;2018104;80;20172;-66
2021/03/20 03:17:49;;;;;;;4.73;1.82;;;;;;;-2.25;80.83;100264.69;2016704;78;21654;-67
2021/03/20 03:20:56;;;;;;;3.44;1.92;;;;;;;-2.21;81.10;100261.53;2018317;80;20263;-67
2021/03/20 03:23:57;;;;;;;4.87;2.00;;;;;;;-2.20;81.60;100249.69;2017590;80;20175;-67
2021/03/20 03:27:06;;;;;;;3.01;1.96;;;;;;;-2.20;81.73;100250.56;2017804;80;20745;-66
2021/03/20 03:30:11;;;;;;;3.54;2.21;;;;;;;-2.25;81.53;100239.25;2017253;80;20160;-66
2021/03/20 03:33:54;;;;;;;3.86;2.11;;;;;;;-2.22;81.43;100249.63;2017938;80;20246;-66
2021/03/20 03:37:08;;;;;;;3.22;1.93;;;;;;;-2.21;81.73;100253.03;2011987;80;20192;-66
2021/03/20 03:40:13;;;;;;;3.59;2.09;;;;;;;-2.20;81.77;100253.13;2017726;80;20198;-66
2021/03/20 03:43:20;;;;;;;2.36;1.81;;;;;;;-2.19;81.69;100252.34;2017611;80;21006;-66
2021/03/20 03:46:23;;;;;;;3.30;1.84;;;;;;;-2.17;81.71;100242.25;2017208;78;21944;-66
2021/03/20 03:49:26;;;;;;;4.06;2.10;;;;;;;-2.15;81.92;100261.06;2017930;80;20192;-66
2021/03/20 03:52:28;;;;;;;2.63;2.09;;;;;;;-2.14;82.24;100261.13;2017240;80;20182;-66
2021/03/20 03:55:30;;;;;;;2.52;1.94;;;;;;;-2.15;82.37;100266.13;2017494;80;20909;-66
2021/03/20 03:58:46;;;;;;;5.38;2.82;;;;;;;-2.16;82.16;100272.84;2018776;80;20219;-66
2021/03/20 04:01:47;;;;;;;3.30;2.01;;;;;;;-2.13;82.02;100279.81;2017267;77;20205;-66
2021/03/20 04:05:20;;;;;;;2.76;2.13;;;;;;;-2.11;81.83;100290.09;2017100;80;20187;-66
2021/03/20 04:08:51;;;;;;;5.19;2.44;;;;;;;-2.13;81.72;100278.16;2017355;80;20268;-66
2021/03/20 04:12:48;;;;;;;4.66;2.62;;;;;;;-2.10;81.78;100287.63;2017943;80;20966;-66
2021/03/20 04:16:00;;;;;;;2.98;2.03;;;;;;;-2.16;81.45;100289.78;2012932;78;20188;-67
2021/03/20 04:19:44;;;;;;;4.21;2.22;;;;;;;-2.17;81.57;100298.22;2016879;80;20784;-66
2021/03/20 04:22:48;;;;;;;3.67;2.58;;;;;;;-2.22;81.78;100304.69;2017256;80;20168;-66
2021/03/20 04:25:59;;;;;;;3.56;2.43;;;;;;;-2.26;81.74;100301.09;2019854;80;20213;-66
2021/03/20 04:29:09;;;;;;;3.97;2.37;;;;;;;-2.26;81.48;100308.72;2017455;80;20201;-66
2021/03/20 04:32:17;;;;;;;3.16;2.21;;;;;;;-2.27;81.56;100301.88;2016186;78;22389;-66
2021/03/20 04:35:23;;;;;;;3.21;2.16;;;;;;;-2.30;81.65;100308.44;2017079;80;20184;-66
2021/03/20 04:38:26;;;;;;;4.01;2.86;;;;;;;-2.33;81.54;100301.50;2017020;80;20176;-66
2021/03/20 04:41:28;;;;;;;3.86;2.47;;;;;;;-2.32;81.56;100304.94;2017475;80;20735;-66
2021/03/20 04:44:35;;;;;;;3.40;2.52;;;;;;;-2.33;81.34;100304.06;2016897;80;20637;-66
2021/03/20 04:47:38;;;;;;;4.66;2.74;;;;;;;-2.33;81.39;100298.09;2016083;78;22360;-66
2021/03/20 04:50:45;;;;;;;4.50;2.39;;;;;;;-2.37;81.55;100299.53;2017260;80;20215;-66
2021/03/20 04:53:49;;;;;;;2.66;2.22;;;;;;;-2.39;81.39;100312.94;2016666;80;20192;-66
2021/03/20 04:56:54;;;;;;;5.99;2.50;;;;;;;-2.42;81.26;100311.09;2017261;80;20171;-66
2021/03/20 04:59:58;;;;;;;4.66;2.50;;;;;;;-2.46;81.22;100311.72;2017481;80;20201;-66
2021/03/20 05:03:04;;;;;;;3.72;2.61;;;;;;;-2.52;81.03;100313.84;2016058;78;20462;-66
2021/03/20 05:06:08;;;;;;;4.21;2.33;;;;;;;-2.56;80.93;100314.44;2016792;80;20180;-66
2021/03/20 05:09:19;;;;;;;3.98;2.33;;;;;;;-2.61;80.87;100323.47;2015820;80;20180;-66
2021/03/20 05:12:25;;;;;;;5.21;2.50;;;;;;;-2.64;80.76;100320.75;2014760;80;20179;-65
2021/03/20 05:15:31;;;;;;;4.51;2.82;;;;;;;-2.67;80.55;100318.00;2014885;77;20908;-76
2021/03/20 05:18:32;;;;;;;5.68;2.54;;;;;;;-2.71;80.59;100308.41;2015690;80;20200;-76
2021/03/20 05:21:38;;;;;;;6.10;3.00;;;;;;;-2.75;80.63;100309.88;2015333;80;20244;-76
2021/03/20 05:24:39;;;;;;;5.00;3.18;;;;;;;-2.78;80.73;100305.50;2015433;80;20201;-75
2021/03/20 05:27:41;;;;;;;5.63;2.82;;;;;;;-2.76;80.99;100310.66;2014686;80;20199;-75
2021/03/20 05:30:43;;;;;;;4.11;2.53;;;;;;;-2.80;81.22;100304.53;2017591;78;20909;-74
2021/03/20 05:33:47;;;;;;;5.23;2.59;;;;;;;-2.82;81.23;100306.09;2014508;80;20624;-75
2021/03/20 05:36:49;;;;;;;3.50;2.49;;;;;;;-2.84;81.08;100306.78;2019046;80;20204;-76
2021/03/20 05:39:52;;;;;;;5.20;2.72;;;;;;;-2.88;81.13;100299.72;2016777;80;20197;-76
2021/03/20 05:43:32;;;;;;;6.19;2.68;;;;;;;-2.89;81.23;100297.97;2016631;80;20280;-76
2021/03/20 05:46:44;;;;;;;5.16;2.28;;;;;;;-2.88;81.22;100300.59;2015535;77;24049;-76
2021/03/20 05:50:17;;;;;;;4.43;2.46;;;;;;;-2.87;81.27;100307.47;2016848;80;20206;-75
2021/03/20 05:53:37;;;;;;;4.32;2.90;;;;;;;-2.88;81.27;100317.50;2016677;80;20176;-77
2021/03/20 05:56:54;;;;;;;3.27;2.92;;;;;;;-2.88;81.26;100314.97;2017255;80;20187;-76
2021/03/20 06:00:16;;;;;;;5.23;2.72;;;;;;;-2.89;81.31;100320.84;2016974;80;20188;-75
2021/03/20 06:03:37;;;;;;;3.92;2.36;;;;;;;-2.88;81.24;100323.47;2013164;80;20719;-75
2021/03/20 06:06:48;;;;;;;4.27;2.63;;;;;;;-2.87;81.14;100326.88;2012144;80;20176;-75
2021/03/20 06:09:56;;;;;;;4.29;2.56;;;;;;;-2.84;81.15;100335.59;2011696;80;20176;-74
2021/03/20 06:13:11;;;;;;;4.40;2.63;;;;;;;-2.80;81.09;100334.13;2011421;80;20160;-75
2021/03/20 06:16:30;;;;;;;2.93;2.52;;;;;;;-2.73;81.18;100346.44;2012579;78;21696;-75
2021/03/20 06:19:46;;;;;;;6.16;2.84;;;;;;;-2.65;81.10;100352.91;2015997;80;20207;-75
2021/03/20 06:23:07;;;;;;;3.28;2.60;;;;;;;-2.60;81.16;100351.53;2016896;80;20253;-76
2021/03/20 06:26:14;;;;;;;3.76;2.61;;;;;;;-2.50;81.21;100353.88;2016972;80;20163;-75
2021/03/20 06:29:21;;;;;;;4.16;3.01;;;;;;;-2.38;81.36;100355.41;2016936;80;20172;-75
2021/03/20 06:32:30;;;;;;;6.43;3.06;;;;;;;-2.28;81.51;100363.72;2016157;78;23120;-75
2021/03/20 06:35:40;;;;;;;3.84;2.89;;;;;;;-2.15;81.53;100371.31;2016059;80;21114;-75
2021/03/20 06:38:51;;;;;;;7.33;3.97;;;;;;;-1.99;81.68;100362.03;2016543;80;20547;-76
2021/03/20 06:41:57;;;;;;;3.38;2.62;;;;;;;-1.82;82.09;100366.50;2016740;80;20180;-76
2021/03/20 06:45:08;;;;;;;6.27;2.48;;;;;;;-1.47;81.79;100366.03;2016551;80;20709;-75
2021/03/20 06:48:23;;;;;;;4.16;2.40;;;;;;;-1.01;81.11;100363.63;2011010;77;20201;-73
2021/03/20 06:51:28;;;;;;;3.55;2.63;;;;;;;-0.70;80.00;100369.66;2012364;80;20676;-72
2021/03/20 06:54:31;;;;;;;4.72;2.21;;;;;;;-0.44;79.39;100380.41;2011821;80;20356;-72
2021/03/20 06:57:33;;;;;;;3.44;2.06;;;;;;;-0.33;78.96;100364.03;2011383;80;20335;-74
2021/03/20 07:00:35;;;;;;;3.17;2.49;;;;;;;-0.20;78.74;100370.66;2011239;80;20499;-74
2021/03/20 07:03:37;;;;;;;4.60;2.61;;;;;;;0.00;78.49;100370.09;2019609;80;20224;-73
2021/03/20 07:07:17;;;;;;;3.56;2.39;;;;;;;0.18;77.71;100375.25;2016486;80;20361;-74
2021/03/20 07:10:40;;;;;;;3.19;2.41;;;;;;;0.35;77.28;100379.56;2016274;80;20313;-77
2021/03/20 07:13:50;;;;;;;4.51;2.63;;;;;;;0.60;76.66;100392.81;2016813;80;20305;-77
2021/03/20 07:16:56;;;;;;;4.19;3.06;;;;;;;0.51;75.88;100404.22;2015898;78;20374;-76
2021/03/20 07:20:27;;;;;;;5.41;2.54;;;;;;;0.44;75.70;100410.72;2016910;80;20408;-77
2021/03/20 07:23:29;;;;;;;5.49;3.15;;;;;;;0.58;75.96;100412.31;2016337;80;21058;-76
2021/03/20 07:26:46;;;;;;;4.16;2.65;;;;;;;0.84;75.20;100402.53;2016922;80;20324;-77
2021/03/20 07:29:55;;;;;;;4.29;2.88;;;;;;;0.83;75.14;100408.44;2016557;80;20348;-75
2021/03/20 07:32:57;;;;;;;6.40;2.96;;;;;;;0.85;75.50;100414.50;2016219;77;21190;-79
2021/03/20 07:36:18;;;;;;;4.15;2.83;;;;;;;1.02;75.80;100423.91;2016764;80;20160;-79
2021/03/20 07:39:24;;;;;;;4.89;2.75;;;;;;;1.43;75.71;100420.81;2017915;80;20312;-80
2021/03/20 07:42:37;;;;;;;2.64;2.33;;;;;;;1.96;74.05;100414.78;2018860;80;20404;-78
2021/03/20 07:45:41;;;;;;;2.63;2.30;;;;;;;2.31;72.39;100424.09;2016690;78;23501;-78
2021/03/20 07:48:44;;;;;;;3.15;2.20;;;;;;;2.72;69.98;100415.69;2018142;80;21040;-77
2021/03/20 07:51:56;;;;;;;2.47;2.21;;;;;;;3.19;69.32;100421.06;2017375;80;20452;-78
2021/03/20 07:55:16;;;;;;;3.30;2.24;;;;;;;3.66;67.71;100416.97;2021282;80;20313;-80
2021/03/20 07:58:23;;;;;;;3.17;2.33;;;;;;;4.11;65.26;100418.75;2022138;80;20305;-81
2021/03/20 08:01:28;;;;;;;3.91;2.05;;;;;;;4.09;64.02;100412.66;2019460;77;20298;-81
2021/03/20 08:04:53;;;;;;;3.26;2.21;;;;;;;3.89;63.02;100411.91;2021117;80;21130;-80
2021/03/20 08:07:54;;;;;;;3.05;2.13;;;;;;;3.73;62.81;100416.41;2018972;80;20361;-70
2021/03/20 08:10:58;;;;;;;4.25;2.13;;;;;;;4.02;62.80;100414.97;2016496;80;20357;-70
2021/03/20 08:14:18;;;;;;;3.66;1.81;;;;;;;4.35;61.30;100412.78;2017369;80;20338;-69
2021/03/20 08:17:21;;;;;;;1.71;1.59;;;;;;;4.79;60.97;100420.38;2016527;78;20786;-68
2021/03/20 08:20:23;;;;;;;1.51;1.30;;;;;;;5.23;60.86;100426.22;2016700;80;20360;-68
2021/03/20 08:23:50;;;;;;;4.45;1.41;;;;;;;5.58;59.56;100419.63;2016365;80;20468;-75
2021/03/20 08:27:00;;;;;;;2.16;1.26;;;;;;;5.96;58.05;100422.56;2016153;80;20758;-75
2021/03/20 08:30:25;;;;;;;1.33;1.23;;;;;;;6.27;56.46;100429.50;2015283;80;20351;-75
2021/03/20 08:34:05;;;;;;;1.55;1.45;;;;;;;6.40;54.25;100425.56;2014519;80;20385;-77
2021/03/20 08:37:16;;;;;;;2.74;1.64;;;;;;;6.47;54.44;100430.97;2015537;80;20333;-77
2021/03/20 08:40:52;;;;;;;1.50;1.40;;;;;;;6.68;54.37;100429.84;2016491;80;20440;-77
2021/03/20 08:44:10;;;;;;;2.66;1.35;;;;;;;6.76;53.11;100424.03;2015916;80;20351;-77
2021/03/20 08:47:17;;;;;;;1.89;1.79;;;;;;;7.04;52.68;100428.25;2015659;78;20351;-77
2021/03/20 08:50:30;;;;;;;1.66;1.31;;;;;;;7.10;51.35;100428.38;2016265;80;20427;-76
2021/03/20 08:53:46;;;;;;;1.42;1.27;;;;;;;6.98;51.12;100423.75;2017171;80;20366;-77
2021/03/20 08:57:07;;;;;;;1.60;1.50;;;;;;;7.16;51.66;100430.25;2016056;80;20911;-77
2021/03/20 09:00:45;;;;;;;2.38;1.60;;;;;;;7.40;51.17;100425.72;2016502;80;20342;-77
2021/03/20 09:03:51;;;;;;;2.20;1.88;;;;;;;7.48;50.70;100425.91;2017406;80;21070;-76
2021/03/20 09:07:20;;;;;;;2.42;2.13;;;;;;;7.19;50.04;100430.34;2016020;80;20401;-77
2021/03/20 09:10:44;;;;;;;2.39;1.35;;;;;;;6.56;50.98;100431.22;2017059;80;20789;-76
2021/03/20 09:14:01;;;;;;;3.19;1.59;;;;;;;6.23;52.67;100438.84;2016612;80;20854;-77
2021/03/20 09:17:05;;;;;;;4.15;1.70;;;;;;;5.91;51.53;100437.88;2015174;77;20352;-76
2021/03/20 09:20:38;;;;;;;1.40;1.30;;;;;;;5.62;53.30;100436.06;2016389;80;20431;-76
2021/03/20 09:23:49;;;;;;;1.64;1.30;;;;;;;5.37;53.28;100424.06;2016175;80;20802;-76
2021/03/20 09:26:58;;;;;;;1.91;1.29;;;;;;;5.21;53.78;100437.28;2016886;80;21008;-75
2021/03/20 09:30:45;;;;;;;2.31;1.40;;;;;;;5.00;52.74;100435.69;2017048;80;20832;-76
2021/03/20 09:33:47;;;;;;;1.63;1.38;;;;;;;4.81;54.23;100435.88;2005609;80;20631;-76
2021/03/20 09:36:51;;;;;;;1.54;1.44;;;;;;;4.76;55.19;100435.72;2011552;80;20322;-76
2021/03/20 09:39:55;;;;;;;1.92;1.45;;;;;;;4.72;52.92;100436.44;2011980;80;20378;-76
2021/03/20 09:43:29;;;;;;;1.51;1.35;;;;;;;4.82;52.84;100441.06;2011714;80;20326;-76
2021/03/20 09:46:38;;;;;;;1.63;1.52;;;;;;;4.82;50.99;100448.78;2013032;78;21109;-75
2021/03/20 09:52:00;;;;;;;2.28;0.94;;;;;;;4.98;52.10;100454.47;2069196;77;20186;-76
2021/03/20 09:55:30;;;;;;;1.30;1.20;;;;;;;5.00;52.53;100463.13;2057669;78;20309;-76
2021/03/20 09:58:32;;;;;;;1.51;1.26;;;;;;;5.09;52.29;100454.03;2057991;78;20304;-76
2021/03/20 10:01:43;;;;;;;1.25;1.11;;;;;;;5.15;51.55;100455.94;2053511;76;21294;-77
2021/03/20 10:04:51;;;;;;;1.77;1.00;;;;;;;5.11;50.27;100459.25;2047227;79;20431;-76
2021/03/20 10:08:22;;;;;;;1.54;0.99;;;;;;;5.12;51.28;100461.00;2047009;79;20462;-76
2021/03/20 10:11:38;;;;;;;1.11;0.82;;;;;;;5.18;51.54;100460.31;2046753;79;20326;-76
2021/03/20 10:14:56;;;;;;;1.00;0.94;;;;;;;5.61;50.81;100453.22;2046783;79;21043;-76
2021/03/20 10:18:06;;;;;;;1.60;1.10;;;;;;;5.55;51.03;100458.16;2046440;77;20970;-76
2021/03/20 10:21:20;;;;;;;1.42;1.01;;;;;;;5.50;50.95;100440.81;2046808;79;20381;-76
2021/03/20 10:24:26;;;;;;;2.28;1.10;;;;;;;5.45;50.61;100440.66;2044369;78;20927;-76
2021/03/20 10:27:36;;;;;;;1.23;1.13;;;;;;;5.30;48.97;100446.16;2043446;79;20336;-76
2021/03/20 10:30:38;;;;;;;3.06;1.41;;;;;;;5.33;49.37;100445.41;2041948;79;20505;-76
2021/03/20 10:33:43;;;;;;;2.38;0.90;;;;;;;5.88;50.47;100435.16;2039453;79;20343;-77
2021/03/20 10:36:48;;;;;;;1.01;0.79;;;;;;;6.63;49.55;100440.00;2039543;79;20406;-76
2021/03/20 10:40:03;;;;;;;0.84;0.80;;;;;;;7.22;47.53;100431.31;2038904;79;20308;-77
2021/03/20 10:43:04;;;;;;;1.25;0.80;;;;;;;7.91;45.85;100438.16;2039677;79;20560;-76
2021/03/20 10:46:06;;;;;;;1.11;0.98;;;;;;;8.27;45.51;100430.34;2040364;76;21076;-77
2021/03/20 10:49:13;;;;;;;0.85;0.85;;;;;;;8.44;43.72;100425.56;2044631;79;20557;-76
2021/03/20 10:52:20;;;;;;;2.15;0.91;;;;;;;8.73;42.49;100410.59;2044553;79;20859;-77
2021/03/20 10:55:29;;;;;;;1.02;0.93;;;;;;;8.93;41.38;100401.47;2043475;79;21288;-76
2021/03/20 10:58:42;;;;;;;1.16;1.06;;;;;;;9.14;42.90;100398.41;2043441;79;20184;-76
2021/03/20 11:01:43;;;;;;;1.52;0.91;;;;;;;9.50;42.35;100390.34;2041671;76;20188;-76
2021/03/20 11:04:45;;;;;;;1.14;0.80;;;;;;;9.83;41.74;100390.00;2040437;79;20351;-76
2021/03/20 11:07:51;;;;;;;1.45;0.94;;;;;;;9.87;41.08;100391.78;2041093;79;20188;-77
2021/03/20 11:11:08;;;;;;;1.20;1.10;;;;;;;10.15;40.25;100387.00;2040298;79;20453;-75
2021/03/20 11:14:12;;;;;;;0.89;0.89;;;;;;;10.21;39.39;100387.97;2041274;79;20196;-77
2021/03/20 11:17:27;;;;;;;1.88;1.08;;;;;;;9.92;36.21;100386.69;2040174;77;22042;-76
2021/03/20 11:20:37;;;;;;;1.52;1.02;;;;;;;9.47;38.14;100390.31;2040121;79;20300;-76
2021/03/20 11:23:38;;;;;;;1.40;0.90;;;;;;;9.42;38.23;100389.38;2041516;79;20245;-77
2021/03/20 11:26:46;;;;;;;0.86;0.85;;;;;;;9.35;39.19;100380.63;2040109;79;20561;-77
2021/03/20 11:29:53;;;;;;;1.89;1.10;;;;;;;9.69;39.11;100381.13;2041233;79;20192;-77
2021/03/20 11:32:59;;;;;;;1.50;1.10;;;;;;;9.55;36.90;100380.09;2040154;76;22466;-77
2021/03/20 11:36:09;;;;;;;0.99;0.91;;;;;;;9.93;37.48;100378.06;2040689;79;20288;-77
2021/03/20 11:39:13;;;;;;;0.96;0.81;;;;;;;10.04;37.25;100368.69;2041236;79;20190;-76
2021/03/20 11:42:15;;;;;;;0.89;0.84;;;;;;;10.23;37.25;100383.69;2044981;79;20209;-76
2021/03/20 11:45:24;;;;;;;1.16;0.70;;;;;;;10.05;34.60;100374.72;2039673;76;20313;-78
2021/03/20 11:48:37;;;;;;;0.98;0.90;;;;;;;10.04;36.50;100381.66;2041018;79;20193;-78
2021/03/20 11:51:45;;;;;;;1.04;0.94;;;;;;;9.80;35.72;100364.03;2041509;79;20201;-77
2021/03/20 11:54:56;;;;;;;1.41;0.96;;;;;;;9.71;36.65;100365.63;2041417;79;20196;-77
2021/03/20 11:58:01;;;;;;;1.02;0.84;;;;;;;9.91;37.71;100361.59;2041332;79;20206;-77
2021/03/20 12:01:24;;;;;;;1.05;0.95;;;;;;;10.00;36.68;100357.38;2039538;76;20387;-77
2021/03/20 12:04:29;;;;;;;0.96;0.90;;;;;;;10.20;36.12;100360.25;2040834;79;20211;-77
2021/03/20 12:07:31;;;;;;;1.60;0.81;;;;;;;10.01;36.28;100355.66;2041712;79;20553;-77
2021/03/20 12:10:33;;;;;;;1.86;0.80;;;;;;;10.20;36.66;100359.38;2041545;79;20994;-77
2021/03/20 12:13:48;;;;;;;1.41;1.00;;;;;;;10.35;35.76;100358.72;2040400;79;20164;-77
2021/03/20 12:16:50;;;;;;;1.91;0.86;;;;;;;10.50;35.72;100362.38;2040302;76;21366;-77
2021/03/20 12:19:57;;;;;;;1.45;0.85;;;;;;;10.61;35.52;100359.03;2043806;79;20304;-78
2021/03/20 12:23:18;;;;;;;1.06;0.90;;;;;;;10.72;35.52;100349.63;2042291;79;20197;-79
2021/03/20 12:26:28;;;;;;;1.20;1.09;;;;;;;10.92;35.83;100349.81;2044027;79;20395;-78
2021/03/20 12:29:43;;;;;;;2.39;0.80;;;;;;;10.75;35.40;100347.91;2045149;79;20679;-79
2021/03/20 12:32:50;;;;;;;1.64;0.80;;;;;;;10.90;35.63;100339.41;2044913;76;21027;-79
2021/03/20 12:35:52;;;;;;;1.50;1.00;;;;;;;11.05;34.97;100341.28;2045742;79;20584;-79
2021/03/20 12:38:55;;;;;;;1.92;1.33;;;;;;;10.91;34.06;100328.16;2045540;79;20209;-79
2021/03/20 12:41:56;;;;;;;1.17;1.01;;;;;;;10.89;33.95;100327.28;2044533;79;20193;-79
2021/03/20 12:44:58;;;;;;;1.09;0.93;;;;;;;11.01;34.90;100316.13;2043808;79;20188;-78
2021/03/20 12:48:00;;;;;;;1.24;1.10;;;;;;;11.13;35.05;100316.22;2040544;76;20900;-83
2021/03/20 12:51:06;;;;;;;1.98;1.30;;;;;;;11.18;35.18;100323.22;2039055;79;21008;-80
2021/03/20 12:54:19;;;;;;;1.34;1.00;;;;;;;11.39;34.52;100304.31;2041040;79;20886;-79
2021/03/20 12:57:28;;;;;;;1.76;0.86;;;;;;;11.40;34.60;100307.78;2039878;79;20273;-79
2021/03/20 13:00:31;;;;;;;0.98;0.86;;;;;;;11.54;33.99;100297.47;2040056;76;22084;-79
2021/03/20 13:03:34;;;;;;;2.59;1.15;;;;;;;11.53;34.25;100295.72;2039496;79;20199;-79
2021/03/20 13:06:36;;;;;;;1.00;0.91;;;;;;;11.56;34.02;100294.00;2042631;79;20678;-80
2021/03/20 13:09:39;;;;;;;0.80;0.80;;;;;;;11.35;34.36;100296.47;2041157;79;20191;-79
2021/03/20 13:12:40;;;;;;;0.90;0.90;;;;;;;11.10;34.07;100300.59;2040451;79;20189;-79
2021/03/20 13:15:43;;;;;;;1.74;1.20;;;;;;;10.87;34.59;100297.81;2037976;79;21418;-80
2021/03/20 13:18:45;;;;;;;1.38;1.27;;;;;;;10.86;34.44;100294.34;2031779;79;20220;-78
2021/03/20 13:21:47;;;;;;;1.20;1.10;;;;;;;10.77;33.53;100286.50;2030991;79;20158;-79
2021/03/20 13:24:49;;;;;;;1.92;1.01;;;;;;;10.71;34.53;100296.81;2029312;79;20211;-79
2021/03/20 13:27:51;;;;;;;2.41;1.00;;;;;;;10.98;34.29;100284.94;2029629;79;20742;-79
2021/03/20 13:30:52;;;;;;;1.38;1.01;;;;;;;11.16;34.89;100285.94;2031568;77;28002;-79
2021/03/20 13:33:54;;;;;;;1.01;0.99;;;;;;;11.17;35.29;100284.22;2037769;79;20212;-80
2021/03/20 13:36:56;;;;;;;2.66;1.10;;;;;;;11.35;35.00;100286.94;2034162;79;20209;-81
2021/03/20 13:39:57;;;;;;;3.86;1.20;;;;;;;11.55;34.82;100288.81;2035410;79;20195;-78
2021/03/20 13:42:59;;;;;;;1.13;1.02;;;;;;;11.49;33.79;100285.31;2032992;79;20185;-77
2021/03/20 13:46:01;;;;;;;1.14;0.91;;;;;;;11.19;33.20;100278.16;2030238;76;22488;-77
2021/03/20 13:49:05;;;;;;;1.34;0.90;;;;;;;11.17;34.64;100273.81;2028709;79;20194;-77
2021/03/20 13:52:07;;;;;;;1.85;1.15;;;;;;;11.20;33.50;100263.44;2038626;79;20286;-80
2021/03/20 13:55:10;;;;;;;1.33;0.79;;;;;;;11.28;34.30;100260.88;2036092;79;20226;-76
2021/03/20 13:58:13;;;;;;;1.75;0.88;;;;;;;11.53;33.95;100262.78;2036605;79;20216;-76
2021/03/20 14:01:14;;;;;;;1.83;0.93;;;;;;;11.76;34.27;100261.16;2035533;76;21845;-76
2021/03/20 14:04:16;;;;;;;3.54;2.56;;;;;;;11.75;33.77;100258.56;2035604;79;20717;-76
2021/03/20 14:07:34;;;;;;;5.54;4.01;;;;;;;11.91;34.06;100250.00;2035099;79;20235;-75
2021/03/20 14:10:38;;;;;;;1.71;1.42;;;;;;;11.98;33.95;100250.88;2036058;79;20208;-78
2021/03/20 14:13:40;;;;;;;1.92;1.20;;;;;;;12.01;33.20;100248.28;2036157;79;20293;-78
2021/03/20 14:16:42;;;;;;;1.24;1.02;;;;;;;12.02;33.03;100247.41;2034919;76;23361;-79
2021/03/20 14:19:58;;;;;;;1.20;1.02;;;;;;;12.21;31.75;100249.22;2035918;79;21096;-78
2021/03/20 14:23:00;;;;;;;1.04;0.95;;;;;;;11.85;31.47;100244.78;2037545;79;20215;-77
2021/03/20 14:26:02;;;;;;;2.00;1.24;;;;;;;11.76;32.44;100250.75;2036658;79;20207;-78
2021/03/20 14:29:03;;;;;;;0.95;0.91;;;;;;;11.62;32.58;100247.22;2036994;79;20213;-77
2021/03/20 14:32:06;;;;;;;2.53;0.84;;;;;;;11.45;32.54;100241.06;2035960;76;20578;-80
2021/03/20 14:35:08;;;;;;;1.41;1.09;;;;;;;11.53;33.46;100247.19;2039321;79;20215;-79
2021/03/20 14:38:10;;;;;;;1.67;0.80;;;;;;;11.59;33.37;100238.53;2041756;79;20273;-80
2021/03/20 14:41:12;;;;;;;1.35;1.00;;;;;;;11.46;32.77;100240.19;2040101;79;20214;-77
2021/03/20 14:44:14;;;;;;;2.78;1.20;;;;;;;11.59;33.84;100243.72;2037522;79;20201;-76